Time;durP1;ratioP1;P1;durP2;ratioP2;P2;SDS_P1;SDS_P2;PMS_P1;PMS_P2;Temp;Humidity;BMP_temperature;BMP_pressure;BME280_temperature;BME280_humidity;BME280_pressure;Samples;Min_cycle;Max_cycle;Signal;HPM_P1;HPM_P2
2021/09/30 00:02:20;;;;;;;2.35;0.80;;;10.40;99.90;;;;;;5071737;28;20031;-39
2021/09/30 00:04:49;;;;;;;2.00;0.88;;;10.40;99.90;;;;;;5059886;28;20023;-35
2021/09/30 00:07:14;;;;;;;0.82;0.70;;;10.40;99.90;;;;;;5071444;28;20476;-37
2021/09/30 00:09:44;;;;;;;1.73;0.98;;;10.40;99.90;;;;;;5058913;28;20021;-37
2021/09/30 00:12:14;;;;;;;2.05;0.88;;;10.40;99.90;;;;;;5072037;28;20079;-36
2021/09/30 00:41:55;;;;;;;1.58;1.00;;;10.30;99.90;;;;;;5062036;28;20031;-36
2021/09/30 00:47:18;;;;;;;1.70;1.02;;;10.30;99.90;;;;;;5063367;28;20430;-39
2021/09/30 00:52:46;;;;;;;1.80;0.98;;;10.20;99.90;;;;;;5063155;28;20491;-38
2021/09/30 01:30:33;;;;;;;3.85;2.45;;;10.00;99.90;;;;;;5035425;28;20475;-35
2021/09/30 02:20:24;;;;;;;3.13;2.50;;;9.60;99.90;;;;;;5060422;28;20035;-37
2021/09/30 02:39:28;;;;;;;3.90;2.00;;;9.30;99.90;;;;;;5061063;28;20044;-38
2021/09/30 02:58:37;;;;;;;3.30;2.40;;;9.20;99.90;;;;;;5054990;28;20502;-39
2021/09/30 03:01:07;;;;;;;4.30;2.60;;;9.10;99.90;;;;;;5064326;28;20143;-37
2021/09/30 03:03:37;;;;;;;6.93;2.20;;;9.10;99.90;;;;;;5054433;28;20032;-38
2021/09/30 03:06:06;;;;;;;3.85;2.40;;;9.10;99.90;;;;;;5064972;28;20060;-38
2021/09/30 03:08:42;;;;;;;6.10;2.47;;;9.10;99.90;;;;;;5051393;28;20057;-38
2021/09/30 03:11:08;;;;;;;4.95;2.28;;;9.10;99.90;;;;;;5064627;28;20036;-33
2021/09/30 03:13:42;;;;;;;5.15;2.35;;;9.10;99.90;;;;;;5053143;28;20052;-40
2021/09/30 03:16:22;;;;;;;3.22;2.20;;;9.10;99.90;;;;;;5061111;28;20044;-35
2021/09/30 03:19:14;;;;;;;4.07;1.90;;;9.10;99.90;;;;;;5073142;28;20035;-37
2021/09/30 03:24:26;;;;;;;4.70;2.10;;;9.10;99.90;;;;;;5054251;28;20063;-38
2021/09/30 03:26:52;;;;;;;5.93;2.53;;;9.10;99.90;;;;;;5064323;28;20025;-34
2021/09/30 03:29:18;;;;;;;6.07;2.40;;;9.00;99.90;;;;;;5052488;28;20020;-37
2021/09/30 03:31:45;;;;;;;3.88;2.30;;;9.00;99.90;;;;;;5064186;28;20094;-36
2021/09/30 03:34:14;;;;;;;3.47;2.08;;;9.00;99.90;;;;;;5052762;28;20033;-38
2021/09/30 03:36:40;;;;;;;5.63;2.33;;;9.00;99.90;;;;;;5064462;28;20472;-35
2021/09/30 03:39:12;;;;;;;6.35;2.83;;;9.00;99.90;;;;;;5052785;28;20035;-39
2021/09/30 03:41:40;;;;;;;3.97;2.00;;;9.00;99.90;;;;;;5064394;28;20028;-37
2021/09/30 03:44:06;;;;;;;5.13;2.47;;;9.00;99.90;;;;;;5051745;28;20043;-35
2021/09/30 03:46:32;;;;;;;8.23;2.78;;;9.00;99.90;;;;;;5063401;28;20055;-38
2021/09/30 03:48:58;;;;;;;5.93;2.83;;;9.00;99.90;;;;;;5053649;28;20358;-35
2021/09/30 03:51:35;;;;;;;3.90;2.30;;;9.00;99.90;;;;;;5060477;28;20027;-36
2021/09/30 03:54:17;;;;;;;4.95;2.20;;;9.00;99.90;;;;;;5054208;28;20524;-38
2021/09/30 03:56:57;;;;;;;5.03;2.20;;;9.00;99.90;;;;;;5061968;28;20028;-34
2021/09/30 03:59:23;;;;;;;4.13;2.30;;;9.00;99.90;;;;;;5052658;28;20044;-38
2021/09/30 04:01:58;;;;;;;7.60;2.53;;;9.00;99.90;;;;;;5061195;28;20028;-38
2021/09/30 04:04:32;;;;;;;7.70;2.33;;;9.00;99.90;;;;;;5052318;28;20094;-42
2021/09/30 04:07:02;;;;;;;9.07;2.53;;;9.00;99.90;;;;;;5061397;28;20055;-36
2021/09/30 04:09:27;;;;;;;3.63;2.35;;;9.00;99.90;;;;;;5053984;28;20070;-38
2021/09/30 04:12:16;;;;;;;6.25;2.25;;;9.00;99.90;;;;;;5058985;28;20028;-36
2021/09/30 04:14:45;;;;;;;4.38;2.20;;;9.00;99.90;;;;;;5053701;28;20049;-37
2021/09/30 04:17:10;;;;;;;8.88;2.70;;;8.90;99.90;;;;;;5059441;28;20040;-34
2021/09/30 04:19:36;;;;;;;8.63;2.70;;;8.90;99.90;;;;;;5054964;28;20025;-38
2021/09/30 04:22:02;;;;;;;5.05;2.25;;;8.90;99.90;;;;;;5057420;28;20021;-36
2021/09/30 04:24:28;;;;;;;7.82;2.90;;;8.90;99.90;;;;;;5058357;28;20025;-37
2021/09/30 04:26:55;;;;;;;4.60;2.67;;;8.90;99.90;;;;;;5054567;28;20025;-33
2021/09/30 04:29:21;;;;;;;6.35;2.70;;;8.90;99.90;;;;;;5060652;28;20009;-38
2021/09/30 04:31:47;;;;;;;7.38;2.50;;;8.90;99.90;;;;;;5053199;28;20020;-37
2021/09/30 04:34:13;;;;;;;6.28;2.60;;;8.90;99.90;;;;;;5062422;28;20095;-36
2021/09/30 04:36:38;;;;;;;5.65;2.17;;;8.90;99.90;;;;;;5053036;28;20017;-36
2021/09/30 04:39:04;;;;;;;6.78;2.90;;;8.90;99.90;;;;;;5062909;28;20025;-36
2021/09/30 04:41:30;;;;;;;6.85;2.95;;;8.90;99.90;;;;;;5050847;28;20094;-36
2021/09/30 04:43:56;;;;;;;6.72;2.80;;;8.90;99.90;;;;;;5064384;28;20017;-36
2021/09/30 04:46:22;;;;;;;6.43;2.70;;;8.90;99.90;;;;;;5049801;28;20036;-36
2021/09/30 04:48:49;;;;;;;5.78;3.17;;;8.90;99.90;;;;;;5062751;28;20039;-37
2021/09/30 04:51:15;;;;;;;6.82;3.10;;;8.80;99.90;;;;;;5051350;28;20021;-34
2021/09/30 04:53:41;;;;;;;4.88;2.65;;;8.90;99.90;;;;;;5061108;28;20039;-38
2021/09/30 04:56:07;;;;;;;6.45;2.70;;;8.90;99.90;;;;;;5053608;28;20025;-38
2021/09/30 04:58:33;;;;;;;6.90;3.33;;;8.90;99.90;;;;;;5058231;28;20111;-39
2021/09/30 05:00:58;;;;;;;5.82;2.80;;;8.90;99.90;;;;;;5054998;28;20135;-38
2021/09/30 05:03:24;;;;;;;10.23;3.25;;;8.90;99.90;;;;;;5055842;28;20035;-37
2021/09/30 05:05:49;;;;;;;9.93;3.60;;;8.90;99.90;;;;;;5058557;28;20480;-38
2021/09/30 05:08:15;;;;;;;5.47;2.67;;;8.80;99.90;;;;;;5053169;28;20025;-34
2021/09/30 05:10:42;;;;;;;7.65;3.10;;;8.80;99.90;;;;;;5060437;28;20031;-38
2021/09/30 05:13:11;;;;;;;10.05;3.15;;;8.80;99.90;;;;;;5051783;28;20419;-32
2021/09/30 05:15:37;;;;;;;6.57;3.33;;;8.80;99.90;;;;;;5061144;28;20028;-32
2021/09/30 05:18:05;;;;;;;6.15;2.88;;;8.80;99.90;;;;;;5068022;28;20535;-41
2021/09/30 05:20:32;;;;;;;6.03;3.00;;;8.80;99.90;;;;;;5056901;28;20063;-37
2021/09/30 05:22:58;;;;;;;7.05;3.30;;;8.80;99.90;;;;;;5050118;28;20067;-39
2021/09/30 05:25:25;;;;;;;6.45;3.05;;;8.80;99.90;;;;;;5063829;28;20232;-35
2021/09/30 05:27:52;;;;;;;7.47;3.22;;;8.80;99.90;;;;;;5087400;28;20017;-39
2021/09/30 05:30:19;;;;;;;6.32;3.00;;;8.70;99.90;;;;;;5062555;28;20032;-41
2021/09/30 05:32:45;;;;;;;6.50;3.00;;;8.70;99.90;;;;;;5049316;28;20068;-41
2021/09/30 05:35:10;;;;;;;5.72;2.95;;;8.70;99.90;;;;;;5061053;28;20071;-40
2021/09/30 05:37:39;;;;;;;8.85;3.85;;;8.70;99.90;;;;;;5049868;28;20017;-41
2021/09/30 05:40:13;;;;;;;6.00;3.00;;;8.70;99.90;;;;;;5058488;28;20024;-41
2021/09/30 05:42:43;;;;;;;7.70;3.47;;;8.70;99.90;;;;;;5050714;28;20028;-38
2021/09/30 05:45:11;;;;;;;7.63;3.03;;;8.60;99.90;;;;;;5061572;28;20020;-40
2021/09/30 05:47:37;;;;;;;6.95;2.75;;;8.70;99.90;;;;;;5081020;28;20019;-39
2021/09/30 05:50:04;;;;;;;6.03;2.85;;;8.70;99.90;;;;;;5083210;28;20446;-40
2021/09/30 05:52:29;;;;;;;4.38;2.13;;;8.70;99.90;;;;;;5055828;28;20056;-40
2021/09/30 05:54:55;;;;;;;6.32;2.42;;;8.60;99.90;;;;;;5056750;28;20071;-40
2021/09/30 05:57:20;;;;;;;6.60;3.40;;;8.60;99.90;;;;;;5060181;28;20056;-41
2021/09/30 05:59:46;;;;;;;5.60;3.50;;;8.60;99.90;;;;;;5068414;28;20028;-41
2021/09/30 06:10:40;;;;;;;6.35;3.13;;;8.70;99.90;;;;;;5053753;28;20039;-42
2021/09/30 06:13:10;;;;;;;6.85;3.30;;;8.60;99.90;;;;;;5056650;28;20072;-41
2021/09/30 06:15:39;;;;;;;5.55;3.20;;;8.70;99.90;;;;;;5053198;28;20375;-42
2021/09/30 06:18:07;;;;;;;6.43;3.40;;;8.70;99.90;;;;;;5051054;28;20373;-43
2021/09/30 06:20:33;;;;;;;5.75;3.15;;;8.70;99.90;;;;;;5050634;28;20169;-40
2021/09/30 06:22:59;;;;;;;8.48;3.35;;;8.70;99.90;;;;;;5060702;28;20100;-39
2021/09/30 06:25:25;;;;;;;7.55;3.75;;;8.70;99.90;;;;;;5050312;28;20088;-41
2021/09/30 06:27:51;;;;;;;7.38;3.63;;;8.80;99.90;;;;;;5061304;28;20040;-39
2021/09/30 06:30:17;;;;;;;6.63;3.83;;;8.80;99.90;;;;;;5051542;28;20025;-41
2021/09/30 06:32:42;;;;;;;7.45;3.63;;;8.80;99.90;;;;;;5065472;28;20016;-40
2021/09/30 06:35:09;;;;;;;6.13;3.47;;;8.90;99.90;;;;;;5053696;28;20029;-41
2021/09/30 06:37:34;;;;;;;5.55;3.25;;;8.90;99.90;;;;;;5066313;28;20082;-41
2021/09/30 06:40:00;;;;;;;4.90;2.83;;;8.90;99.90;;;;;;5053545;28;20021;-43
2021/09/30 06:42:25;;;;;;;10.57;3.47;;;9.00;99.90;;;;;;5064083;28;20034;-42
2021/09/30 06:44:51;;;;;;;5.82;3.08;;;9.00;99.90;;;;;;5055423;28;20071;-41
2021/09/30 06:47:17;;;;;;;5.90;3.20;;;9.00;99.90;;;;;;5061311;28;20041;-38
2021/09/30 06:49:43;;;;;;;6.18;3.05;;;9.10;99.90;;;;;;5057226;28;20037;-43
2021/09/30 06:52:08;;;;;;;5.45;3.30;;;9.10;99.90;;;;;;5059945;28;20021;-45
2021/09/30 06:54:34;;;;;;;6.68;3.15;;;9.10;99.90;;;;;;5067122;28;20081;-44
2021/09/30 06:56:59;;;;;;;6.60;3.47;;;9.30;99.90;;;;;;5072050;28;20484;-43
2021/09/30 06:59:32;;;;;;;4.43;2.78;;;9.30;99.90;;;;;;5072605;28;20032;-44
2021/09/30 07:02:03;;;;;;;4.30;2.92;;;9.30;99.90;;;;;;5074792;28;20040;-46
2021/09/30 07:04:31;;;;;;;6.78;3.38;;;9.40;99.90;;;;;;5069406;28;20054;-44
2021/09/30 07:06:57;;;;;;;9.93;3.55;;;9.40;99.90;;;;;;5071233;28;20745;-44
2021/09/30 07:09:22;;;;;;;9.30;4.28;;;9.40;99.90;;;;;;5061793;28;20039;-46
2021/09/30 07:11:48;;;;;;;7.53;3.63;;;9.50;99.90;;;;;;5062028;28;20074;-45
2021/09/30 07:14:18;;;;;;;9.52;4.10;;;9.50;99.90;;;;;;5068273;28;20463;-45
2021/09/30 07:16:45;;;;;;;10.55;3.72;;;9.60;99.90;;;;;;5062560;28;20020;-45
2021/09/30 07:19:10;;;;;;;6.28;3.30;;;9.60;99.90;;;;;;5062741;28;20430;-45
2021/09/30 07:21:37;;;;;;;8.25;3.55;;;9.60;99.90;;;;;;5075625;28;20048;-48
2021/09/30 07:24:03;;;;;;;9.40;3.85;;;9.70;99.90;;;;;;5062329;28;20025;-46
2021/09/30 07:26:30;;;;;;;9.55;3.30;;;9.80;99.90;;;;;;5056525;28;20057;-42
2021/09/30 07:28:59;;;;;;;6.25;3.80;;;9.80;99.90;;;;;;5064111;28;20496;-43
2021/09/30 07:31:25;;;;;;;6.57;3.67;;;9.80;99.90;;;;;;5053881;28;20013;-41
2021/09/30 07:33:51;;;;;;;5.13;2.95;;;9.90;99.90;;;;;;5061114;28;20028;-42
2021/09/30 07:36:17;;;;;;;8.05;3.45;;;10.00;99.90;;;;;;5055482;28;20188;-41
2021/09/30 07:38:43;;;;;;;6.95;3.40;;;10.00;99.90;;;;;;5060371;28;20025;-41
2021/09/30 07:41:09;;;;;;;6.82;3.25;;;10.10;99.90;;;;;;5059106;28;20024;-42
2021/09/30 07:43:34;;;;;;;6.10;3.00;;;10.10;99.90;;;;;;5052271;28;20017;-41
2021/09/30 07:46:00;;;;;;;8.07;3.08;;;10.10;99.90;;;;;;5081209;28;20016;-42
2021/09/30 07:48:28;;;;;;;6.50;3.95;;;10.20;99.90;;;;;;5070360;28;20044;-40
2021/09/30 07:50:54;;;;;;;8.68;3.40;;;10.20;99.90;;;;;;5060248;28;20021;-42
2021/09/30 07:53:22;;;;;;;6.82;3.25;;;10.20;99.90;;;;;;5063042;28;20028;-42
2021/09/30 07:55:48;;;;;;;6.78;3.22;;;10.30;99.90;;;;;;5069208;28;20048;-40
2021/09/30 07:58:15;;;;;;;6.75;3.10;;;10.40;99.90;;;;;;5059171;28;20032;-40
2021/09/30 08:00:43;;;;;;;5.57;2.95;;;10.40;99.90;;;;;;5065599;28;20024;-40
2021/09/30 08:03:09;;;;;;;4.97;2.70;;;10.50;99.90;;;;;;5055342;28;20029;-41
2021/09/30 08:05:36;;;;;;;8.15;3.15;;;10.50;99.90;;;;;;5066094;28;20055;-43
2021/09/30 08:08:06;;;;;;;5.20;3.10;;;10.60;99.90;;;;;;5059248;28;20028;-40
2021/09/30 08:10:33;;;;;;;8.13;2.80;;;10.70;99.90;;;;;;5067772;28;20100;-42
2021/09/30 08:13:00;;;;;;;6.65;2.85;;;10.80;99.90;;;;;;5054192;28;20039;-43
2021/09/30 08:15:26;;;;;;;7.60;2.88;;;10.90;99.90;;;;;;5063092;28;20101;-41
2021/09/30 08:17:53;;;;;;;4.45;2.50;;;10.90;99.90;;;;;;5071328;28;20349;-40
2021/09/30 08:20:22;;;;;;;7.32;2.80;;;10.90;99.90;;;;;;5064869;28;20475;-41
2021/09/30 08:23:23;;;;;;;4.88;2.58;;;11.00;99.90;;;;;;5071293;28;20021;-42
2021/09/30 08:25:51;;;;;;;6.32;2.55;;;11.00;99.90;;;;;;5063742;28;20025;-41
2021/09/30 08:28:27;;;;;;;;;;;;;;;;;;;;;
2021/09/30 08:30:55;;;;;;;6.70;2.53;;;11.20;99.90;;;;;;5065234;28;20423;-40
2021/09/30 08:33:24;;;;;;;6.22;2.95;;;11.30;99.90;;;;;;5053981;28;20052;-42
2021/09/30 08:35:50;;;;;;;6.38;2.80;;;11.40;99.90;;;;;;5057086;28;20064;-41
2021/09/30 08:38:17;;;;;;;10.13;3.20;;;11.50;99.90;;;;;;5054405;28;20112;-41
2021/09/30 08:40:43;;;;;;;3.83;2.22;;;11.50;99.90;;;;;;5057445;28;20027;-39
2021/09/30 08:43:09;;;;;;;5.85;2.67;;;11.70;99.90;;;;;;5058133;28;20380;-42
2021/09/30 08:45:38;;;;;;;5.07;2.40;;;11.80;99.90;;;;;;5052999;28;20075;-42
2021/09/30 08:48:05;;;;;;;5.50;2.40;;;11.80;99.90;;;;;;5071187;28;20503;-42
2021/09/30 08:50:38;;;;;;;7.82;2.72;;;11.90;99.90;;;;;;5068831;28;20028;-43
2021/09/30 08:53:05;;;;;;;;;;;12.00;99.90;;;;;;5061220;28;20024;-39
2021/09/30 08:55:30;;;;;;;6.15;2.88;;;12.00;99.90;;;;;;5068744;28;19947;-41
2021/09/30 08:57:56;;;;;;;6.22;2.60;;;12.00;99.90;;;;;;5059929;28;20399;-39
2021/09/30 09:00:21;;;;;;;4.15;2.10;;;12.10;99.90;;;;;;5069663;28;20021;-42
2021/09/30 09:02:52;;;;;;;4.43;2.38;;;12.20;99.90;;;;;;5059418;28;20021;-42
2021/09/30 09:05:21;;;;;;;4.75;2.15;;;12.20;99.90;;;;;;5070721;28;20028;-42
2021/09/30 09:08:07;;;;;;;4.35;2.35;;;12.30;99.90;;;;;;5058496;28;20036;-42
2021/09/30 09:10:39;;;;;;;7.05;2.42;;;12.40;99.90;;;;;;5065807;28;20044;-41
2021/09/30 09:13:11;;;;;;;7.13;2.40;;;12.40;99.90;;;;;;5058648;28;20090;-42
2021/09/30 09:15:48;;;;;;;8.48;2.83;;;12.50;99.90;;;;;;5069174;28;20032;-41
2021/09/30 09:18:16;;;;;;;8.10;3.50;;;12.60;99.90;;;;;;5058317;28;20470;-42
2021/09/30 09:20:44;;;;;;;4.82;2.00;;;12.70;99.90;;;;;;5070200;28;20028;-41
2021/09/30 09:23:13;;;;;;;5.50;2.20;;;12.70;99.90;;;;;;5062450;28;20024;-41
2021/09/30 09:25:39;;;;;;;4.78;2.10;;;12.90;99.90;;;;;;5050053;28;20461;-40
2021/09/30 09:28:04;;;;;;;3.03;2.00;;;13.00;99.90;;;;;;5059259;28;20016;-41
2021/09/30 09:30:52;;;;;;;5.97;2.60;;;13.10;99.90;;;;;;5069604;28;20043;-43
2021/09/30 09:33:35;;;;;;;5.97;2.20;;;13.20;99.90;;;;;;5068362;28;20021;-42
2021/09/30 09:36:12;;;;;;;8.00;2.50;;;13.40;99.90;;;;;;5050014;28;20040;-41
2021/09/30 09:38:43;;;;;;;4.82;2.03;;;13.50;99.90;;;;;;5061836;28;20203;-40
2021/09/30 09:41:23;;;;;;;5.97;2.38;;;13.60;99.90;;;;;;5051239;28;20025;-42
2021/09/30 09:43:49;;;;;;;5.38;2.30;;;13.70;99.90;;;;;;5062079;28;20036;-42
2021/09/30 09:46:18;;;;;;;7.15;2.40;;;13.80;99.90;;;;;;5048944;28;20029;-42
2021/09/30 09:48:59;;;;;;;8.45;2.58;;;13.90;99.90;;;;;;5052881;28;20025;-40
2021/09/30 09:51:32;;;;;;;4.60;2.53;;;13.90;99.90;;;;;;5049808;28;20017;-42
2021/09/30 09:54:06;;;;;;;6.97;2.20;;;13.90;99.90;;;;;;5062967;28;20111;-42
2021/09/30 09:56:35;;;;;;;9.48;3.33;;;13.90;99.90;;;;;;5049280;28;20032;-42
2021/09/30 09:59:00;;;;;;;4.85;2.20;;;13.90;99.90;;;;;;5061791;28;20028;-41
2021/09/30 10:02:00;;;;;;;6.90;1.95;;;13.90;99.90;;;;;;5050298;28;20025;-41
2021/09/30 10:04:26;;;;;;;8.40;2.60;;;13.90;99.90;;;;;;5061245;28;20487;-41
2021/09/30 10:06:52;;;;;;;7.15;2.40;;;13.90;99.90;;;;;;5056517;28;20025;-40
2021/09/30 10:09:18;;;;;;;4.90;2.20;;;13.90;99.90;;;;;;5067786;28;20028;-40
2021/09/30 10:11:43;;;;;;;5.85;2.03;;;13.90;99.90;;;;;;5069314;28;20028;-42
2021/09/30 10:14:13;;;;;;;5.40;2.20;;;13.90;99.90;;;;;;5059250;28;20053;-40
2021/09/30 10:16:39;;;;;;;4.82;2.10;;;14.00;99.90;;;;;;5058386;28;20053;-40
2021/09/30 10:19:08;;;;;;;10.80;2.08;;;14.10;99.90;;;;;;5063069;28;20035;-41
2021/09/30 10:21:35;;;;;;;5.72;2.17;;;14.20;99.90;;;;;;5063598;28;20037;-40
2021/09/30 10:24:04;;;;;;;7.68;2.03;;;14.30;99.90;;;;;;5066444;28;20027;-41
2021/09/30 10:26:44;;;;;;;5.20;2.25;;;14.40;99.90;;;;;;5067427;28;20023;-42
2021/09/30 10:29:29;;;;;;;3.80;1.65;;;14.50;99.90;;;;;;5062690;28;20062;-41
2021/09/30 10:31:58;;;;;;;5.65;1.88;;;14.60;99.90;;;;;;5064224;28;20032;-44
2021/09/30 10:34:33;;;;;;;5.88;1.38;;;14.70;99.90;;;;;;5064032;28;20028;-44
2021/09/30 10:37:18;;;;;;;6.55;1.55;;;14.70;99.90;;;;;;5063182;28;20780;-42
2021/09/30 10:40:05;;;;;;;5.90;1.67;;;14.80;99.90;;;;;;5064547;28;20029;-44
2021/09/30 10:42:41;;;;;;;4.85;1.85;;;14.80;99.50;;;;;;5066151;28;20127;-43
2021/09/30 10:45:15;;;;;;;3.75;1.30;;;14.90;99.80;;;;;;5061102;28;20025;-40
2021/09/30 10:47:48;;;;;;;4.03;1.35;;;14.80;99.50;;;;;;5066172;28;20170;-43
2021/09/30 10:50:14;;;;;;;3.00;1.30;;;14.80;99.60;;;;;;5062253;28;20032;-44
2021/09/30 10:52:54;;;;;;;6.55;1.60;;;14.70;99.60;;;;;;5063703;28;20071;-42
2021/09/30 10:55:23;;;;;;;4.07;1.33;;;14.70;99.50;;;;;;5063968;28;20594;-42
2021/09/30 10:57:56;;;;;;;4.22;1.38;;;14.80;99.60;;;;;;5054968;28;20469;-42
2021/09/30 11:00:24;;;;;;;7.00;1.67;;;14.80;99.40;;;;;;5054202;28;20021;-42
2021/09/30 11:03:02;;;;;;;3.40;1.10;;;14.80;99.10;;;;;;5056485;28;20021;-42
2021/09/30 11:05:32;;;;;;;4.10;1.20;;;14.90;99.40;;;;;;5053878;28;20016;-41
2021/09/30 11:08:23;;;;;;;3.83;1.20;;;14.90;99.40;;;;;;5055771;28;20365;-42
2021/09/30 11:11:01;;;;;;;3.22;0.88;;;15.10;99.50;;;;;;5056167;28;20033;-42
2021/09/30 11:13:31;;;;;;;3.40;1.13;;;15.20;99.10;;;;;;5052817;28;20439;-41
2021/09/30 11:16:03;;;;;;;3.58;1.10;;;15.30;99.20;;;;;;5062670;28;20040;-39
2021/09/30 11:18:57;;;;;;;3.60;1.10;;;15.30;98.60;;;;;;5071183;28;20476;-42
2021/09/30 11:21:31;;;;;;;5.63;1.30;;;15.30;98.10;;;;;;5068723;28;20017;-43
2021/09/30 11:24:21;;;;;;;3.83;1.10;;;15.40;98.20;;;;;;5072925;28;20106;-43
2021/09/30 11:26:53;;;;;;;3.42;1.10;;;15.40;97.80;;;;;;5068872;28;20028;-40
2021/09/30 11:29:21;;;;;;;3.20;1.00;;;15.50;97.30;;;;;;5053049;28;20070;-41
2021/09/30 11:31:54;;;;;;;3.05;1.00;;;15.40;97.40;;;;;;5061750;28;20059;-41
2021/09/30 11:34:31;;;;;;;3.85;1.00;;;15.40;97.00;;;;;;5071212;28;20131;-39
2021/09/30 11:37:14;;;;;;;3.33;1.10;;;15.40;96.90;;;;;;5071708;28;20021;-43
2021/09/30 11:39:48;;;;;;;5.18;1.02;;;15.40;97.00;;;;;;5071637;28;20028;-36
2021/09/30 11:42:14;;;;;;;5.28;1.13;;;15.40;97.00;;;;;;5068006;28;20036;-42
2021/09/30 11:44:40;;;;;;;5.18;1.55;;;15.40;97.00;;;;;;5065015;28;20404;-42
2021/09/30 11:47:05;;;;;;;4.53;1.35;;;15.40;97.00;;;;;;5072356;28;20024;-42
2021/09/30 11:49:41;;;;;;;3.60;1.20;;;15.50;96.90;;;;;;5070974;28;20020;-41
2021/09/30 11:52:13;;;;;;;5.07;1.40;;;15.50;96.50;;;;;;5066472;28;20021;-40
2021/09/30 11:54:39;;;;;;;3.55;1.05;;;15.50;96.80;;;;;;5066630;28;20037;-42
2021/09/30 11:57:16;;;;;;;3.83;0.90;;;15.60;96.80;;;;;;5067746;28;20476;-43
2021/09/30 11:59:41;;;;;;;4.70;1.48;;;15.60;96.90;;;;;;5065182;28;20081;-42
2021/09/30 12:02:12;;;;;;;5.32;1.40;;;15.60;96.80;;;;;;5069429;28;20426;-42
2021/09/30 12:04:44;;;;;;;2.70;0.98;;;15.60;95.50;;;;;;5062544;28;20025;-43
2021/09/30 12:07:20;;;;;;;4.22;1.33;;;15.60;95.60;;;;;;5070349;28;20178;-43
2021/09/30 12:09:48;;;;;;;2.55;1.20;;;15.50;96.10;;;;;;5062737;28;20447;-42
2021/09/30 12:12:14;;;;;;;5.53;1.20;;;15.50;96.10;;;;;;5070718;28;20092;-42
2021/09/30 12:14:46;;;;;;;3.70;1.02;;;15.60;95.80;;;;;;5059919;28;20484;-42
2021/09/30 12:17:14;;;;;;;3.28;1.08;;;15.60;95.90;;;;;;5065916;28;20017;-41
2021/09/30 12:19:46;;;;;;;5.45;1.30;;;15.70;95.70;;;;;;5068546;28;20025;-42
2021/09/30 12:22:16;;;;;;;3.13;1.20;;;15.80;95.60;;;;;;5070795;28;20021;-42
2021/09/30 12:24:59;;;;;;;4.40;1.00;;;15.80;95.50;;;;;;5059911;28;20075;-42
2021/09/30 12:27:37;;;;;;;2.80;1.48;;;15.90;95.00;;;;;;5070070;28;20514;-41
2021/09/30 12:30:08;;;;;;;4.68;0.85;;;15.90;94.90;;;;;;5060329;28;20099;-41
2021/09/30 12:32:39;;;;;;;2.08;0.50;;;15.90;95.10;;;;;;5069255;28;20032;-42
2021/09/30 12:35:30;;;;;;;2.13;0.70;;;16.00;95.20;;;;;;5060623;28;20029;-42
2021/09/30 12:37:58;;;;;;;11.73;5.50;;;16.10;95.20;;;;;;5069988;28;20456;-42
2021/09/30 12:40:34;;;;;;;6.10;2.13;;;16.10;94.50;;;;;;5060321;28;20063;-40
2021/09/30 12:43:04;;;;;;;4.15;1.35;;;16.10;94.50;;;;;;5069949;28;20062;-43
2021/09/30 12:45:35;;;;;;;4.40;0.90;;;16.00;94.10;;;;;;5070300;28;20066;-41
2021/09/30 12:48:16;;;;;;;5.10;1.45;;;16.00;94.30;;;;;;5068261;28;20480;-42
2021/09/30 12:51:04;;;;;;;7.95;1.23;;;16.00;94.20;;;;;;5071127;28;20101;-40
2021/09/30 12:53:29;;;;;;;4.28;0.90;;;16.10;94.30;;;;;;5068856;28;20028;-43
2021/09/30 12:56:05;;;;;;;2.67;0.73;;;16.10;94.10;;;;;;5069824;28;20028;-42
2021/09/30 12:58:41;;;;;;;4.20;0.80;;;16.10;94.50;;;;;;5068652;28;20062;-41
2021/09/30 13:01:27;;;;;;;3.65;0.98;;;16.20;94.30;;;;;;5069289;28;20467;-41
2021/09/30 13:04:01;;;;;;;3.70;1.02;;;16.20;94.10;;;;;;5066931;28;20558;-41
2021/09/30 13:06:27;;;;;;;3.40;1.20;;;16.20;94.30;;;;;;5059240;28;20025;-41
2021/09/30 13:08:53;;;;;;;4.85;1.02;;;16.30;94.40;;;;;;5069767;28;20036;-42
2021/09/30 13:11:29;;;;;;;3.95;1.50;;;16.30;94.00;;;;;;5059557;28;20024;-42
2021/09/30 13:14:18;;;;;;;4.00;1.00;;;16.20;94.30;;;;;;5067995;28;20047;-41
2021/09/30 13:16:50;;;;;;;3.20;1.30;;;16.20;94.00;;;;;;5057784;28;20392;-43
2021/09/30 13:19:16;;;;;;;3.58;1.02;;;16.10;94.10;;;;;;5051426;28;20028;-39
2021/09/30 13:22:04;;;;;;;4.72;1.00;;;16.10;94.20;;;;;;5061410;28;20044;-40
2021/09/30 13:24:39;;;;;;;4.00;1.00;;;16.10;94.40;;;;;;5052022;28;20372;-41
2021/09/30 13:27:08;;;;;;;4.10;0.90;;;16.10;94.50;;;;;;5059210;28;20464;-42
2021/09/30 13:29:37;;;;;;;2.28;0.90;;;16.10;94.70;;;;;;5068326;28;20025;-41
2021/09/30 13:32:03;;;;;;;5.45;1.20;;;16.20;95.00;;;;;;5059873;28;20038;-42
2021/09/30 13:34:28;;;;;;;3.97;0.93;;;16.20;94.80;;;;;;5068727;28;20032;-42
2021/09/30 13:36:57;;;;;;;4.03;1.00;;;16.20;95.00;;;;;;5059176;28;20025;-41
2021/09/30 13:39:23;;;;;;;5.35;1.13;;;16.20;95.20;;;;;;5069687;28;20135;-42
2021/09/30 13:41:48;;;;;;;6.10;1.60;;;16.20;95.00;;;;;;5056753;28;20109;-42
2021/09/30 13:44:17;;;;;;;3.67;1.20;;;16.10;94.70;;;;;;5067197;28;20384;-42
2021/09/30 13:46:42;;;;;;;3.97;1.15;;;16.10;94.90;;;;;;5064422;28;20107;-42
2021/09/30 13:49:08;;;;;;;5.50;2.00;;;16.00;95.00;;;;;;5069750;28;20139;-42
2021/09/30 13:51:34;;;;;;;4.88;1.30;;;16.00;95.00;;;;;;5058875;28;20464;-42
2021/09/30 13:54:00;;;;;;;4.97;1.20;;;15.90;94.90;;;;;;5067456;28;20042;-41
2021/09/30 13:56:27;;;;;;;4.25;1.23;;;15.90;95.00;;;;;;5060805;28;20082;-39
2021/09/30 13:58:53;;;;;;;5.43;1.10;;;15.90;95.20;;;;;;5063484;28;20036;-41
2021/09/30 14:01:19;;;;;;;4.85;1.48;;;15.90;95.30;;;;;;5064039;28;20025;-42
2021/09/30 14:03:44;;;;;;;3.30;1.00;;;15.80;95.40;;;;;;5061672;28;20056;-41
2021/09/30 14:06:12;;;;;;;4.60;1.00;;;15.80;95.70;;;;;;5067080;28;20020;-42
2021/09/30 14:08:41;;;;;;;4.72;1.40;;;15.80;95.90;;;;;;5059448;28;20379;-42
2021/09/30 14:11:08;;;;;;;6.63;1.38;;;15.80;96.10;;;;;;5067123;28;20165;-42
2021/09/30 14:13:37;;;;;;;8.43;1.60;;;15.70;96.10;;;;;;5057564;28;20051;-41
2021/09/30 14:16:03;;;;;;;5.00;1.20;;;15.80;96.00;;;;;;5067498;28;20267;-41
2021/09/30 14:18:29;;;;;;;2.55;1.00;;;15.70;96.20;;;;;;5067422;28;20161;-42
2021/09/30 14:20:55;;;;;;;3.85;1.10;;;15.70;96.40;;;;;;5067065;28;20112;-43
2021/09/30 14:23:22;;;;;;;4.57;1.23;;;15.70;96.40;;;;;;5060771;28;20633;-42
2021/09/30 14:25:49;;;;;;;7.88;1.42;;;15.80;96.50;;;;;;5049165;28;20155;-43
2021/09/30 14:28:17;;;;;;;3.90;1.20;;;15.70;96.40;;;;;;5061357;28;20032;-41
2021/09/30 14:30:43;;;;;;;6.50;1.23;;;15.80;96.40;;;;;;5048697;28;20029;-42
2021/09/30 14:33:08;;;;;;;4.28;1.15;;;15.80;96.30;;;;;;5060762;28;20024;-42
2021/09/30 14:35:34;;;;;;;5.10;1.42;;;15.80;96.30;;;;;;5049664;28;20047;-42
2021/09/30 14:38:00;;;;;;;4.13;1.20;;;15.80;96.30;;;;;;5058188;28;20416;-42
2021/09/30 14:40:25;;;;;;;7.38;4.95;;;15.80;96.30;;;;;;5053161;28;20120;-42
2021/09/30 14:42:52;;;;;;;7.25;2.80;;;15.80;96.40;;;;;;5059342;28;20024;-42
2021/09/30 14:45:18;;;;;;;4.60;2.10;;;15.90;96.50;;;;;;5055417;28;20575;-44
2021/09/30 14:47:43;;;;;;;4.82;1.90;;;16.00;96.60;;;;;;5053441;28;20477;-42
2021/09/30 14:50:09;;;;;;;4.13;2.08;;;16.10;96.40;;;;;;5058628;28;20116;-42
2021/09/30 14:52:35;;;;;;;5.60;2.00;;;16.10;95.90;;;;;;5054458;28;20021;-41
2021/09/30 14:55:00;;;;;;;5.95;2.40;;;16.10;96.20;;;;;;5061868;28;20430;-42
2021/09/30 14:57:26;;;;;;;4.57;1.50;;;16.10;96.00;;;;;;5070903;28;20028;-42
2021/09/30 14:59:51;;;;;;;3.50;1.67;;;16.10;96.20;;;;;;5062572;28;20652;-42
2021/09/30 15:02:17;;;;;;;3.58;1.65;;;16.10;96.30;;;;;;5072689;28;20009;-41
2021/09/30 15:04:43;;;;;;;4.35;1.67;;;16.10;96.20;;;;;;5060846;28;20073;-42
2021/09/30 15:07:08;;;;;;;6.57;2.00;;;16.10;96.00;;;;;;5073018;28;20078;-40
2021/09/30 15:09:37;;;;;;;6.55;1.88;;;16.10;95.90;;;;;;5059024;28;20044;-38
2021/09/30 15:12:03;;;;;;;5.97;1.90;;;16.00;95.90;;;;;;5073671;28;20239;-42
2021/09/30 15:14:29;;;;;;;5.22;1.98;;;16.00;96.10;;;;;;5060152;28;20037;-41
2021/09/30 15:19:27;;;;;;;4.93;1.52;;;16.00;96.20;;;;;;5061073;28;20040;-39
2021/09/30 15:21:53;;;;;;;2.85;1.40;;;15.90;96.30;;;;;;5056060;28;20159;-38
2021/09/30 15:24:19;;;;;;;5.50;1.70;;;15.90;96.40;;;;;;5059506;28;20104;-41
2021/09/30 15:26:45;;;;;;;3.83;1.65;;;15.90;96.20;;;;;;5057126;28;20070;-42
2021/09/30 15:29:11;;;;;;;3.45;1.38;;;15.80;96.40;;;;;;5057726;28;20028;-38
2021/09/30 15:31:39;;;;;;;5.35;1.33;;;15.70;96.30;;;;;;5060271;28;20755;-41
2021/09/30 15:34:06;;;;;;;4.78;1.23;;;15.70;96.50;;;;;;5054955;28;20033;-41
2021/09/30 15:36:32;;;;;;;3.30;1.33;;;15.70;96.70;;;;;;5062286;28;20021;-40
2021/09/30 15:39:01;;;;;;;6.25;1.70;;;15.70;97.10;;;;;;5054053;28;20086;-41
2021/09/30 15:41:27;;;;;;;3.72;1.30;;;15.70;96.80;;;;;;5063329;28;20024;-41
2021/09/30 15:43:55;;;;;;;4.05;1.52;;;15.60;96.80;;;;;;5053869;28;20021;-41
2021/09/30 15:46:21;;;;;;;4.95;1.27;;;15.60;97.00;;;;;;5063159;28;20028;-41